createdAt,value
2023-02-11T00:01:26.880Z,-7.27
2023-02-11T00:03:55.655Z,-7.30
2023-02-11T00:06:25.608Z,-7.32
2023-02-11T00:08:54.348Z,-7.37
2023-02-11T00:11:25.707Z,-7.43
2023-02-11T00:13:53.782Z,-7.48
2023-02-11T00:16:21.984Z,-7.49
2023-02-11T00:18:50.553Z,-7.51
2023-02-11T00:21:22.283Z,-7.49
2023-02-11T00:23:51.431Z,-7.46
2023-02-11T00:26:25.985Z,-7.40
2023-02-11T00:28:54.122Z,-7.35
2023-02-11T00:31:23.735Z,-7.34
2023-02-11T00:33:52.160Z,-7.36
2023-02-11T00:36:25.410Z,-7.33
2023-02-11T00:38:55.494Z,-7.30
2023-02-11T00:41:24.146Z,-7.25
2023-02-11T00:43:53.105Z,-7.22
2023-02-11T00:46:21.554Z,-7.23
2023-02-11T00:48:51.956Z,-7.27
2023-02-11T00:51:22.666Z,-7.32
2023-02-11T00:53:52.152Z,-7.33
2023-02-11T00:56:28.153Z,-7.30
2023-02-11T00:59:02.544Z,-7.27
2023-02-11T01:01:30.590Z,-7.23
2023-02-11T01:03:58.686Z,-7.24
2023-02-11T01:06:26.595Z,-7.26
2023-02-11T01:08:54.642Z,-7.25
2023-02-11T01:11:23.014Z,-7.27
2023-02-11T01:13:51.099Z,-7.28
2023-02-11T01:16:20.660Z,-7.25
2023-02-11T01:18:49.298Z,-7.20
2023-02-11T01:21:19.315Z,-7.15
2023-02-11T01:23:47.765Z,-7.14
2023-02-11T01:26:16.383Z,-7.13
2023-02-11T01:28:44.841Z,-7.08
2023-02-11T01:31:13.119Z,-7.03
2023-02-11T01:33:41.896Z,-7.03
2023-02-11T01:36:11.945Z,-7.06
2023-02-11T01:38:41.145Z,-7.10
2023-02-11T01:41:12.727Z,-7.12
2023-02-11T01:43:44.267Z,-7.15
2023-02-11T01:46:15.478Z,-7.20
2023-02-11T01:48:57.630Z,-7.28
2023-02-11T01:51:32.866Z,-7.37
2023-02-11T01:54:21.761Z,-7.45
2023-02-11T01:57:11.573Z,-7.52
2023-02-11T02:00:15.805Z,-7.57
2023-02-11T02:02:44.105Z,-7.63
2023-02-11T02:05:24.341Z,-7.69
2023-02-11T02:08:23.520Z,-7.71
2023-02-11T02:10:56.534Z,-7.70
2023-02-11T02:13:26.095Z,-7.68
2023-02-11T02:16:20.297Z,-7.65
2023-02-11T02:19:19.830Z,-7.64
2023-02-11T02:22:15.414Z,-7.59
2023-02-11T02:25:18.864Z,-7.56
2023-02-11T02:27:49.575Z,-7.53
2023-02-11T02:30:26.545Z,-7.52
2023-02-11T02:33:21.708Z,-7.51
2023-02-11T02:35:58.506Z,-7.51
2023-02-11T02:38:30.593Z,-7.50
2023-02-11T02:41:10.279Z,-7.52
2023-02-11T02:43:43.108Z,-7.52
2023-02-11T02:46:19.744Z,-7.53
2023-02-11T02:48:55.126Z,-7.52
2023-02-11T02:51:48.835Z,-7.53
2023-02-11T02:54:38.804Z,-7.52
2023-02-11T02:57:33.066Z,-7.54
2023-02-11T03:04:42.897Z,-7.62
2023-02-11T03:07:28.774Z,-7.67
2023-02-11T03:10:08.703Z,-7.82
2023-02-11T03:12:38.656Z,-7.95
2023-02-11T03:15:07.749Z,-7.97
2023-02-11T03:17:39.605Z,-7.95
2023-02-11T03:20:11.462Z,-7.92
2023-02-11T03:23:12.782Z,-7.91
2023-02-11T03:26:02.933Z,-7.89
2023-02-11T03:28:37.475Z,-7.87
2023-02-11T03:31:19.293Z,-7.88
2023-02-11T03:34:08.792Z,-7.87
2023-02-11T03:36:48.064Z,-7.86
2023-02-11T03:39:30.808Z,-7.84
2023-02-11T03:42:02.175Z,-7.82
2023-02-11T03:44:36.797Z,-7.82
2023-02-11T03:47:10.222Z,-7.82
2023-02-11T03:49:41.827Z,-7.81
2023-02-11T03:52:12.447Z,-7.83
2023-02-11T03:54:43.599Z,-7.90
2023-02-11T03:57:11.708Z,-7.93
2023-02-11T04:00:00.620Z,-7.95
2023-02-11T04:02:32.559Z,-8.01
2023-02-11T04:05:01.521Z,-8.02
2023-02-11T04:07:29.882Z,-8.00
2023-02-11T04:09:57.851Z,-7.99
2023-02-11T04:12:26.625Z,-7.96
2023-02-11T04:14:54.706Z,-7.96
2023-02-11T04:17:22.898Z,-7.94
2023-02-11T04:19:50.905Z,-7.92
2023-02-11T04:22:18.817Z,-7.91
2023-02-11T04:24:46.905Z,-7.92
2023-02-11T04:27:15.087Z,-7.91
2023-02-11T04:29:43.172Z,-7.89
2023-02-11T04:32:11.813Z,-7.85
2023-02-11T04:34:40.176Z,-7.82
2023-02-11T04:37:08.513Z,-7.82
2023-02-11T04:39:36.811Z,-7.84
2023-02-11T04:42:05.040Z,-7.82
2023-02-11T04:44:33.064Z,-7.82
2023-02-11T04:47:01.206Z,-7.84
2023-02-11T04:49:29.352Z,-7.85
2023-02-11T04:51:57.376Z,-7.86
2023-02-11T04:54:25.517Z,-7.87
2023-02-11T04:56:53.527Z,-7.88
2023-02-11T04:59:21.746Z,-7.89
2023-02-11T05:01:50.068Z,-7.94
2023-02-11T05:04:18.411Z,-7.98
2023-02-11T05:06:46.472Z,-8.01
2023-02-11T05:09:15.275Z,-8.08
2023-02-11T05:11:43.413Z,-8.11
2023-02-11T05:14:11.454Z,-8.12
2023-02-11T05:16:39.826Z,-8.16
2023-02-11T05:19:08.010Z,-8.19
2023-02-11T05:21:35.952Z,-8.19
2023-02-11T05:24:04.198Z,-8.24
2023-02-11T05:26:32.732Z,-8.27
2023-02-11T05:29:00.972Z,-8.25
2023-02-11T05:31:29.156Z,-8.22
2023-02-11T05:33:57.269Z,-8.19
2023-02-11T05:36:25.415Z,-8.17
2023-02-11T05:38:53.482Z,-8.19
2023-02-11T05:41:22.021Z,-8.20
2023-02-11T05:43:53.861Z,-8.23
2023-02-11T05:46:22.072Z,-8.25
2023-02-11T05:48:50.167Z,-8.24
2023-02-11T05:51:18.352Z,-8.23
2023-02-11T05:53:46.364Z,-8.23
2023-02-11T05:56:14.767Z,-8.19
2023-02-11T05:58:42.918Z,-8.15
2023-02-11T06:01:11.000Z,-8.11
2023-02-11T06:03:39.012Z,-8.03
2023-02-11T06:06:10.786Z,-7.95
2023-02-11T06:08:39.806Z,-7.91
2023-02-11T06:11:07.760Z,-7.87
2023-02-11T06:13:36.691Z,-7.77
2023-02-11T06:16:05.094Z,-7.70
2023-02-11T06:18:33.748Z,-7.65
2023-02-11T06:21:01.766Z,-7.59
2023-02-11T06:23:30.503Z,-7.49
2023-02-11T06:26:09.028Z,-7.37
2023-02-11T06:28:39.319Z,-7.29
2023-02-11T06:31:09.807Z,-7.27
2023-02-11T06:33:38.853Z,-7.27
2023-02-11T06:36:18.636Z,-7.28
2023-02-11T06:38:48.153Z,-7.24
2023-02-11T06:41:20.243Z,-7.21
2023-02-11T06:43:48.937Z,-7.12
2023-02-11T06:46:17.580Z,-7.01
2023-02-11T06:48:46.156Z,-6.97
2023-02-11T06:51:14.980Z,-6.98
2023-02-11T06:53:45.707Z,-7.02
2023-02-11T06:56:17.524Z,-6.95
2023-02-11T06:58:46.026Z,-6.72
2023-02-11T07:01:16.486Z,-6.44
2023-02-11T07:03:46.097Z,-6.38
2023-02-11T07:06:17.426Z,-6.32
2023-02-11T07:08:46.166Z,-6.26
2023-02-11T07:11:21.412Z,-6.24
2023-02-11T07:13:49.289Z,-6.21
2023-02-11T07:16:18.852Z,-6.16
2023-02-11T07:18:47.999Z,-6.18
2023-02-11T07:21:19.300Z,-6.24
2023-02-11T07:23:49.021Z,-6.29
2023-02-11T07:26:20.082Z,-6.30
2023-02-11T07:28:48.133Z,-6.27
2023-02-11T07:31:25.766Z,-6.24
2023-02-11T07:33:56.720Z,-6.15
2023-02-11T07:36:24.887Z,-6.02
2023-02-11T07:38:53.143Z,-5.94
2023-02-11T07:41:23.191Z,-5.85
2023-02-11T07:43:51.610Z,-5.73
2023-02-11T07:46:22.559Z,-5.63
2023-02-11T07:48:51.411Z,-5.54
2023-02-11T07:51:26.104Z,-5.39
2023-02-11T07:53:55.579Z,-5.22
2023-02-11T07:56:23.776Z,-5.13
2023-02-11T07:58:52.195Z,-5.02
2023-02-11T08:01:25.302Z,-4.97
2023-02-11T08:03:54.102Z,-4.90
2023-02-11T08:06:24.895Z,-4.88
2023-02-11T08:08:53.299Z,-4.81
2023-02-11T08:11:26.407Z,-4.69
2023-02-11T08:13:56.033Z,-4.69
2023-02-11T08:16:50.011Z,-4.66
2023-02-11T08:19:18.154Z,-4.65
2023-02-11T08:21:47.137Z,-4.64
2023-02-11T08:24:15.954Z,-4.56
2023-02-11T08:26:44.683Z,-4.46
2023-02-11T08:29:15.094Z,-4.35
2023-02-11T08:31:46.114Z,-4.28
2023-02-11T08:34:14.747Z,-4.24
2023-02-11T08:36:43.474Z,-4.25
2023-02-11T08:39:22.608Z,-4.27
2023-02-11T08:41:56.866Z,-4.17
2023-02-11T08:44:25.263Z,-4.02
2023-02-11T08:46:53.407Z,-3.93
2023-02-11T08:49:22.274Z,-3.84
2023-02-11T08:51:50.562Z,-3.78
2023-02-11T08:54:18.442Z,-3.70
2023-02-11T08:56:46.446Z,-3.49
2023-02-11T08:59:15.482Z,-3.16
2023-02-11T09:01:44.650Z,-2.64
2023-02-11T09:04:13.193Z,-2.28
2023-02-11T09:06:41.375Z,-2.27
2023-02-11T09:09:14.509Z,-2.30
2023-02-11T09:11:44.781Z,-2.32
2023-02-11T09:14:22.526Z,-2.33
2023-02-11T09:16:51.863Z,-2.27
2023-02-11T09:19:21.013Z,-2.19
2023-02-11T09:21:49.534Z,-2.12
2023-02-11T09:24:18.044Z,-2.19
2023-02-11T09:26:46.097Z,-2.29
2023-02-11T09:29:14.350Z,-2.31
2023-02-11T09:31:42.374Z,-2.40
2023-02-11T09:34:11.931Z,-2.44
2023-02-11T09:36:41.579Z,-2.43
2023-02-11T09:39:17.298Z,-2.31
2023-02-11T09:42:00.497Z,-2.22
2023-02-11T09:44:33.502Z,-2.11
2023-02-11T09:47:05.972Z,-2.01
2023-02-11T09:49:44.492Z,-2.03
2023-02-11T09:52:18.421Z,-1.97
2023-02-11T09:54:58.219Z,-1.88
2023-02-11T09:57:35.757Z,-1.81
2023-02-11T10:00:24.117Z,-1.74
2023-02-11T10:02:58.129Z,-1.77
2023-02-11T10:05:56.532Z,-1.89
2023-02-11T10:08:38.151Z,-1.97
2023-02-11T10:11:31.245Z,-1.98
2023-02-11T10:14:21.813Z,-1.89
2023-02-11T10:17:15.434Z,-1.77
2023-02-11T10:20:11.149Z,-1.62
2023-02-11T10:23:22.690Z,-1.51
2023-02-11T10:25:54.671Z,-1.45
2023-02-11T10:28:36.933Z,-1.42
2023-02-11T10:31:22.999Z,-1.43
2023-02-11T10:34:03.516Z,-1.41
2023-02-11T10:36:35.874Z,-1.43
2023-02-11T10:39:31.901Z,-1.41
2023-02-11T10:42:05.493Z,-1.29
2023-02-11T10:44:39.370Z,-1.25
2023-02-11T10:47:23.691Z,-1.23
2023-02-11T10:49:51.769Z,-1.25
2023-02-11T10:52:25.221Z,-1.14
2023-02-11T10:55:14.586Z,-0.85
2023-02-11T10:57:50.903Z,-0.48
2023-02-11T11:00:36.494Z,-0.21
2023-02-11T11:03:25.500Z,-0.12
2023-02-11T11:06:00.296Z,-0.07
2023-02-11T11:08:47.939Z,-0.08
2023-02-11T11:11:19.188Z,-0.20
2023-02-11T11:13:53.146Z,-0.25
2023-02-11T11:16:25.877Z,-0.29
2023-02-11T11:19:21.624Z,-0.32
2023-02-11T11:21:57.169Z,-0.34
2023-02-11T11:24:29.478Z,-0.33
2023-02-11T11:27:01.606Z,-0.25
2023-02-11T11:29:39.457Z,-0.29
2023-02-11T11:32:20.539Z,-0.36
2023-02-11T11:34:52.427Z,-0.37
2023-02-11T11:37:24.836Z,-0.38
2023-02-11T11:40:10.501Z,-0.38
2023-02-11T11:42:39.973Z,-0.39
2023-02-11T11:45:19.826Z,-0.34
2023-02-11T11:47:54.307Z,-0.30
2023-02-11T11:50:27.848Z,-0.25
2023-02-11T11:52:55.722Z,-0.25
2023-02-11T11:55:42.469Z,-0.30
2023-02-11T11:58:15.909Z,-0.35
2023-02-11T12:00:53.643Z,-0.40
2023-02-11T12:03:27.954Z,-0.32
2023-02-11T12:06:29.379Z,-0.23
2023-02-11T12:09:34.158Z,-0.21
2023-02-11T12:12:21.012Z,-0.27
2023-02-11T12:15:10.334Z,-0.25
2023-02-11T12:17:56.884Z,-0.17
2023-02-11T12:20:27.731Z,-0.03
2023-02-11T12:23:17.649Z,0.14
2023-02-11T12:26:06.623Z,0.34
2023-02-11T12:28:34.845Z,0.45
2023-02-11T12:31:13.198Z,0.53
2023-02-11T12:34:08.401Z,0.59
2023-02-11T12:36:41.951Z,0.55
2023-02-11T12:39:24.525Z,0.59
2023-02-11T12:42:30.857Z,0.57
2023-02-11T12:45:04.722Z,0.49
2023-02-11T12:47:32.682Z,0.49
2023-02-11T12:50:13.365Z,0.52
2023-02-11T12:52:50.445Z,0.63
2023-02-11T12:55:28.216Z,0.73
2023-02-11T12:58:01.587Z,0.75
2023-02-11T13:00:51.501Z,0.81
2023-02-11T13:03:32.009Z,0.91
2023-02-11T13:06:07.959Z,0.89
2023-02-11T13:08:40.914Z,0.92
2023-02-11T13:11:16.119Z,0.93
2023-02-11T13:13:56.406Z,0.99
2023-02-11T13:16:39.503Z,1.09
2023-02-11T13:19:13.428Z,1.20
2023-02-11T13:22:04.921Z,1.28
2023-02-11T13:24:44.456Z,1.30
2023-02-11T13:27:18.372Z,1.30
2023-02-11T13:30:26.908Z,1.36
2023-02-11T13:32:55.733Z,1.38
2023-02-11T13:35:39.921Z,1.20
2023-02-11T13:38:16.789Z,1.00
2023-02-11T13:40:45.367Z,0.93
2023-02-11T13:43:23.269Z,0.88
2023-02-11T13:45:57.834Z,0.80
2023-02-11T13:48:31.750Z,0.76
2023-02-11T13:51:34.567Z,0.73
2023-02-11T13:54:04.166Z,0.69
2023-02-11T13:56:36.676Z,0.72
2023-02-11T13:59:25.912Z,0.67
2023-02-11T14:02:12.319Z,0.53
2023-02-11T14:05:31.253Z,0.46
2023-02-11T14:08:30.325Z,0.39
2023-02-11T14:11:14.911Z,0.34
2023-02-11T14:13:48.866Z,0.23
2023-02-11T14:16:35.609Z,0.13
2023-02-11T14:19:06.485Z,0.01
2023-02-11T14:21:38.952Z,-0.04
2023-02-11T14:24:10.116Z,-0.04
2023-02-11T14:26:41.187Z,-0.06
2023-02-11T14:29:41.145Z,-0.11
2023-02-11T14:32:47.841Z,-0.24
2023-02-11T14:35:18.976Z,-0.34
2023-02-11T14:38:06.525Z,-0.39
2023-02-11T14:40:53.173Z,-0.42
2023-02-11T14:43:29.331Z,-0.48
2023-02-11T14:45:58.895Z,-0.54
2023-02-11T14:48:35.199Z,-0.63
2023-02-11T14:51:06.272Z,-0.71
2023-02-11T14:53:35.218Z,-0.78
2023-02-11T14:56:04.096Z,-0.84
2023-02-11T14:58:32.988Z,-0.93
2023-02-11T15:01:20.987Z,-1.05
2023-02-11T15:03:49.991Z,-1.13
2023-02-11T15:06:21.041Z,-1.19
2023-02-11T15:08:52.488Z,-1.24
2023-02-11T15:11:23.790Z,-1.32
2023-02-11T15:13:55.317Z,-1.41
2023-02-11T15:16:25.670Z,-1.51
2023-02-11T15:19:00.152Z,-1.62
2023-02-11T15:21:32.721Z,-1.72
2023-02-11T15:24:02.840Z,-1.80
2023-02-11T15:26:31.177Z,-1.88
2023-02-11T15:28:59.425Z,-1.96
2023-02-11T15:31:28.529Z,-2.03
2023-02-11T15:34:08.016Z,-2.10
2023-02-11T15:36:37.764Z,-2.15
2023-02-11T15:39:41.037Z,-2.21
2023-02-11T15:42:17.930Z,-2.30
2023-02-11T15:44:49.184Z,-2.38
2023-02-11T15:47:22.738Z,-2.45
2023-02-11T15:49:51.318Z,-2.50
2023-02-11T15:52:25.689Z,-2.54
2023-02-11T15:54:56.501Z,-2.60
2023-02-11T15:57:24.488Z,-2.65
2023-02-11T15:59:54.843Z,-2.70
2023-02-11T16:02:45.258Z,-2.74
2023-02-11T16:05:37.880Z,-2.78
2023-02-11T16:08:26.280Z,-2.81
2023-02-11T16:10:58.637Z,-2.82
2023-02-11T16:13:28.289Z,-2.84
2023-02-11T16:16:05.980Z,-2.85
2023-02-11T16:19:03.162Z,-2.86
2023-02-11T16:21:36.330Z,-2.85
2023-02-11T16:24:07.489Z,-2.85
2023-02-11T16:26:43.254Z,-2.85
2023-02-11T16:29:23.594Z,-2.84
2023-02-11T16:31:53.591Z,-2.82
2023-02-11T16:34:24.662Z,-2.80
2023-02-11T16:36:53.030Z,-2.78
2023-02-11T16:39:22.490Z,-2.77
2023-02-11T16:41:51.883Z,-2.78
2023-02-11T16:44:19.864Z,-2.78
2023-02-11T16:46:48.137Z,-2.78
2023-02-11T16:49:40.905Z,-2.77
2023-02-11T16:52:14.635Z,-2.78
2023-02-11T16:54:42.924Z,-2.78
2023-02-11T16:57:16.151Z,-2.80
2023-02-11T16:59:44.709Z,-2.83
2023-02-11T17:02:22.873Z,-2.88
2023-02-11T17:04:59.151Z,-2.93
2023-02-11T17:07:28.247Z,-2.99
2023-02-11T17:09:56.954Z,-3.05
2023-02-11T17:12:27.850Z,-3.09
2023-02-11T17:14:55.768Z,-3.13
2023-02-11T17:17:23.946Z,-3.17
2023-02-11T17:19:52.224Z,-3.19
2023-02-11T17:22:20.305Z,-3.22
2023-02-11T17:24:48.367Z,-3.24
2023-02-11T17:27:17.234Z,-3.27
2023-02-11T17:29:45.235Z,-3.29
2023-02-11T17:32:13.326Z,-3.33
2023-02-11T17:34:41.456Z,-3.36
2023-02-11T17:37:10.495Z,-3.40
2023-02-11T17:39:40.238Z,-3.45
2023-02-11T17:42:08.900Z,-3.49
2023-02-11T17:44:37.545Z,-3.51
2023-02-11T17:47:05.473Z,-3.53
2023-02-11T17:49:33.512Z,-3.53
2023-02-11T17:52:01.450Z,-3.55
2023-02-11T17:54:29.539Z,-3.59
2023-02-11T17:56:58.583Z,-3.66
2023-02-11T17:59:29.163Z,-3.72
2023-02-11T18:01:57.086Z,-3.74
2023-02-11T18:04:25.008Z,-3.73
2023-02-11T18:06:53.731Z,-3.72
2023-02-11T18:09:22.077Z,-3.68
2023-02-11T18:11:52.559Z,-3.64
2023-02-11T18:14:21.838Z,-3.60
2023-02-11T18:16:51.932Z,-3.57
2023-02-11T18:19:20.419Z,-3.52
2023-02-11T18:21:50.503Z,-3.49
2023-02-11T18:24:19.196Z,-3.45
2023-02-11T18:26:47.115Z,-3.41
2023-02-11T18:29:15.081Z,-3.39
2023-02-11T18:31:43.191Z,-3.36
2023-02-11T18:34:11.569Z,-3.33
2023-02-11T18:36:39.983Z,-3.31
2023-02-11T18:39:08.300Z,-3.27
2023-02-11T18:41:36.382Z,-3.25
2023-02-11T18:44:05.129Z,-3.22
2023-02-11T18:46:33.598Z,-3.21
2023-02-11T18:49:01.645Z,-3.20
2023-02-11T18:51:32.356Z,-3.17
2023-02-11T18:54:01.259Z,-3.15
2023-02-11T18:56:29.396Z,-3.13
2023-02-11T18:59:01.109Z,-3.12
2023-02-11T19:01:31.648Z,-3.10
2023-02-11T19:04:03.618Z,-3.08
2023-02-11T19:06:35.221Z,-3.05
2023-02-11T19:09:15.046Z,-3.01
2023-02-11T19:11:50.516Z,-2.99
2023-02-11T19:14:28.137Z,-2.99
2023-02-11T19:16:58.542Z,-2.98
2023-02-11T19:19:29.241Z,-2.98
2023-02-11T19:21:58.688Z,-2.97
2023-02-11T19:24:28.423Z,-2.96
2023-02-11T19:26:59.356Z,-2.96
2023-02-11T19:29:28.481Z,-2.96
2023-02-11T19:31:56.471Z,-2.97
2023-02-11T19:34:24.869Z,-2.98
2023-02-11T19:36:54.539Z,-2.99
2023-02-11T19:39:24.809Z,-3.01
2023-02-11T19:41:53.279Z,-3.03
2023-02-11T19:44:21.627Z,-3.05
2023-02-11T19:46:50.380Z,-3.05
2023-02-11T19:49:23.221Z,-3.06
2023-02-11T19:51:57.685Z,-3.03
2023-02-11T19:54:27.368Z,-3.02
2023-02-11T19:56:56.113Z,-3.01
2023-02-11T19:59:24.101Z,-3.00
2023-02-11T20:01:53.912Z,-2.99
2023-02-11T20:04:24.065Z,-2.98
2023-02-11T20:06:52.346Z,-2.96
2023-02-11T20:09:21.413Z,-2.95
2023-02-11T20:11:49.798Z,-2.95
2023-02-11T20:14:17.804Z,-2.94
2023-02-11T20:16:49.508Z,-2.92
2023-02-11T20:19:21.736Z,-2.92
2023-02-11T20:21:53.368Z,-2.93
2023-02-11T20:24:22.369Z,-2.94
2023-02-11T20:26:55.331Z,-2.97
2023-02-11T20:29:24.494Z,-2.99
2023-02-11T20:31:53.710Z,-3.01
2023-02-11T20:34:22.271Z,-3.06
2023-02-11T20:36:53.463Z,-3.10
2023-02-11T20:39:23.683Z,-3.13
2023-02-11T20:41:52.499Z,-3.17
2023-02-11T20:44:22.576Z,-3.19
2023-02-11T20:46:52.230Z,-3.19
2023-02-11T20:49:23.067Z,-3.20
2023-02-11T20:51:53.689Z,-3.21
2023-02-11T20:54:23.404Z,-3.20
2023-02-11T20:56:53.785Z,-3.19
2023-02-11T20:59:22.603Z,-3.18
2023-02-11T21:01:55.507Z,-3.17
2023-02-11T21:04:27.217Z,-3.16
2023-02-11T21:06:58.483Z,-3.16
2023-02-11T21:09:29.976Z,-3.17
2023-02-11T21:11:58.875Z,-3.17
2023-02-11T21:14:27.299Z,-3.16
2023-02-11T21:16:55.561Z,-3.15
2023-02-11T21:19:23.856Z,-3.15
2023-02-11T21:21:55.190Z,-3.16
2023-02-11T21:24:23.852Z,-3.15
2023-02-11T21:26:51.832Z,-3.14
2023-02-11T21:29:19.847Z,-3.13
2023-02-11T21:31:48.941Z,-3.11
2023-02-11T21:34:17.870Z,-3.10
2023-02-11T21:36:46.026Z,-3.09
2023-02-11T21:39:14.272Z,-3.08
2023-02-11T21:41:42.472Z,-3.08
2023-02-11T21:44:10.696Z,-3.09
2023-02-11T21:46:41.579Z,-3.11
2023-02-11T21:49:11.177Z,-3.09
2023-02-11T21:51:39.785Z,-3.10
2023-02-11T21:54:11.781Z,-3.09
2023-02-11T21:56:44.630Z,-3.08
2023-02-11T21:59:18.005Z,-3.07
2023-02-11T22:01:47.464Z,-3.05
2023-02-11T22:04:15.702Z,-3.05
2023-02-11T22:06:46.279Z,-3.03
2023-02-11T22:09:18.003Z,-3.03
2023-02-11T22:11:49.707Z,-3.03
2023-02-11T22:14:22.891Z,-3.06
2023-02-11T22:16:52.144Z,-3.08
2023-02-11T22:19:21.702Z,-3.09
2023-02-11T22:21:50.097Z,-3.10
2023-02-11T22:24:18.262Z,-3.10
2023-02-11T22:26:46.894Z,-3.10
2023-02-11T22:29:15.451Z,-3.09
2023-02-11T22:31:44.231Z,-3.09
2023-02-11T22:34:13.141Z,-3.09
2023-02-11T22:36:42.526Z,-3.10
2023-02-11T22:39:13.846Z,-3.10
2023-02-11T22:41:44.757Z,-3.11
2023-02-11T22:44:14.102Z,-3.13
2023-02-11T22:46:42.283Z,-3.14
2023-02-11T22:49:14.047Z,-3.14
2023-02-11T22:51:42.948Z,-3.15
2023-02-11T22:54:16.665Z,-3.16
2023-02-11T22:56:47.165Z,-3.17
2023-02-11T22:59:15.626Z,-3.17
2023-02-11T23:01:44.804Z,-3.17
2023-02-11T23:04:15.706Z,-3.17
2023-02-11T23:06:43.957Z,-3.18
2023-02-11T23:09:14.953Z,-3.17
2023-02-11T23:11:43.240Z,-3.17
2023-02-11T23:14:12.360Z,-3.17
2023-02-11T23:16:41.803Z,-3.18
2023-02-11T23:19:11.156Z,-3.19
2023-02-11T23:21:39.649Z,-3.19
2023-02-11T23:24:11.595Z,-3.19
2023-02-11T23:26:40.991Z,-3.20
2023-02-11T23:29:09.938Z,-3.21
2023-02-11T23:31:40.626Z,-3.21
2023-02-11T23:34:09.651Z,-3.22
2023-02-11T23:36:37.760Z,-3.21
2023-02-11T23:39:06.150Z,-3.21
2023-02-11T23:41:34.315Z,-3.18
2023-02-11T23:44:02.395Z,-3.16
2023-02-11T23:46:30.534Z,-3.13
2023-02-11T23:48:58.614Z,-3.10
2023-02-11T23:51:26.996Z,-3.11
2023-02-11T23:53:56.264Z,-3.09
2023-02-11T23:56:27.059Z,-3.02
2023-02-11T23:58:57.417Z,-2.98
